Time;durP1;ratioP1;P1;durP2;ratioP2;P2;SDS_P1;SDS_P2;PMS_P1;PMS_P2;Temp;Humidity;BMP_temperature;BMP_pressure;BME280_temperature;BME280_humidity;BME280_pressure;Samples;Min_cycle;Max_cycle;Signal;HPM_P1;HPM_P2
2024/02/29 00:00:12;;;;;;;20.30;9.93;;;4.70;99.90;;;;;;5053838;28;20465;-78
2024/02/29 00:02:38;;;;;;;26.93;9.83;;;4.70;99.90;;;;;;5055974;28;20100;-78
2024/02/29 00:05:05;;;;;;;19.93;9.63;;;4.80;99.90;;;;;;5053961;28;20043;-75
2024/02/29 00:07:31;;;;;;;23.87;9.43;;;4.70;99.90;;;;;;5055655;28;20188;-78
2024/02/29 00:09:57;;;;;;;19.67;9.17;;;4.70;99.90;;;;;;5054790;28;20432;-79
2024/02/29 00:12:22;;;;;;;21.67;9.07;;;4.70;99.90;;;;;;5053419;28;20661;-79
2024/02/29 00:14:48;;;;;;;22.50;9.80;;;4.70;99.90;;;;;;5055601;28;20029;-79
2024/02/29 00:17:13;;;;;;;20.73;9.60;;;4.70;99.90;;;;;;5054839;28;20082;-79
2024/02/29 00:19:39;;;;;;;18.67;9.33;;;4.70;99.90;;;;;;5054418;28;20025;-79
2024/02/29 00:22:05;;;;;;;19.17;8.87;;;4.60;99.90;;;;;;5053977;28;20390;-76
2024/02/29 00:24:31;;;;;;;19.10;9.13;;;4.60;99.90;;;;;;5054164;28;20120;-79
2024/02/29 00:26:56;;;;;;;18.13;9.80;;;4.60;99.90;;;;;;5055528;28;20025;-79
2024/02/29 00:29:27;;;;;;;20.40;9.93;;;4.50;99.90;;;;;;5054703;28;20019;-79
2024/02/29 00:31:53;;;;;;;21.40;10.33;;;4.60;99.90;;;;;;5054407;28;20050;-80
2024/02/29 00:34:19;;;;;;;24.80;10.60;;;4.50;99.90;;;;;;5053260;28;20033;-79
2024/02/29 00:36:44;;;;;;;26.07;10.27;;;4.50;99.90;;;;;;5054038;28;20514;-79
2024/02/29 00:39:10;;;;;;;26.73;10.97;;;4.60;99.90;;;;;;5054412;28;20413;-79
2024/02/29 00:41:36;;;;;;;22.40;10.50;;;4.60;99.90;;;;;;5054063;28;20071;-79
2024/02/29 00:44:02;;;;;;;21.77;10.30;;;4.70;99.90;;;;;;5053664;28;20060;-79
2024/02/29 00:46:28;;;;;;;21.17;9.77;;;4.60;99.90;;;;;;5052776;28;20049;-79
2024/02/29 00:48:53;;;;;;;23.67;10.67;;;4.40;99.90;;;;;;5053722;28;20112;-79
2024/02/29 00:51:20;;;;;;;20.27;10.20;;;4.30;99.90;;;;;;5052973;28;20083;-78
2024/02/29 00:53:46;;;;;;;23.77;9.87;;;4.40;99.90;;;;;;5053879;28;20116;-79
2024/02/29 00:56:12;;;;;;;23.03;10.50;;;4.30;99.90;;;;;;5052768;28;20108;-78
2024/02/29 00:58:37;;;;;;;19.57;9.10;;;4.30;99.90;;;;;;5054767;28;20036;-79
2024/02/29 01:01:03;;;;;;;19.73;9.07;;;4.30;99.90;;;;;;5053590;28;20386;-79
2024/02/29 01:03:28;;;;;;;17.43;8.70;;;4.20;99.90;;;;;;5053154;28;20354;-77
2024/02/29 01:05:54;;;;;;;20.77;9.63;;;4.10;99.90;;;;;;5054199;28;20025;-77
2024/02/29 01:08:20;;;;;;;19.27;9.27;;;4.10;99.90;;;;;;5052244;28;20029;-77
2024/02/29 01:10:47;;;;;;;20.00;9.00;;;4.00;99.90;;;;;;5054210;28;20083;-79
2024/02/29 01:13:12;;;;;;;17.57;8.77;;;4.00;99.90;;;;;;5052283;28;20120;-77
2024/02/29 01:15:38;;;;;;;18.13;8.83;;;4.00;99.90;;;;;;5053203;28;20072;-78
2024/02/29 01:18:05;;;;;;;15.23;7.93;;;4.10;99.90;;;;;;5052941;28;20051;-78
2024/02/29 01:20:32;;;;;;;16.20;8.07;;;4.00;99.90;;;;;;5052177;28;20098;-78
2024/02/29 01:22:58;;;;;;;20.67;8.80;;;3.80;99.90;;;;;;5052728;28;20095;-78
2024/02/29 01:25:23;;;;;;;18.40;9.03;;;3.90;99.90;;;;;;5053036;28;20036;-78
2024/02/29 01:27:50;;;;;;;20.10;9.40;;;3.60;99.90;;;;;;5052769;28;20024;-78
2024/02/29 01:30:16;;;;;;;17.20;8.23;;;3.70;99.90;;;;;;5052066;28;20020;-78
2024/02/29 01:32:42;;;;;;;17.30;7.47;;;3.70;99.90;;;;;;5052727;28;20116;-78
2024/02/29 01:35:08;;;;;;;20.53;9.07;;;3.70;99.90;;;;;;5053369;28;20463;-75
2024/02/29 01:37:34;;;;;;;19.27;8.97;;;3.70;99.90;;;;;;5053161;28;20482;-78
2024/02/29 01:40:00;;;;;;;16.20;7.80;;;3.60;99.90;;;;;;5053724;28;20067;-79
2024/02/29 01:42:25;;;;;;;18.43;8.30;;;3.50;99.90;;;;;;5052928;28;20406;-78
2024/02/29 01:44:56;;;;;;;20.03;9.53;;;3.50;99.90;;;;;;5052368;28;20053;-78
2024/02/29 01:47:22;;;;;;;15.73;7.80;;;3.50;99.90;;;;;;5052891;28;20028;-78
2024/02/29 01:49:49;;;;;;;20.53;8.77;;;3.50;99.90;;;;;;5052416;28;20068;-78
2024/02/29 01:52:17;;;;;;;21.53;8.93;;;3.50;99.90;;;;;;5051586;28;20025;-77
2024/02/29 01:54:43;;;;;;;19.80;8.73;;;3.40;99.90;;;;;;5052255;28;20056;-78
2024/02/29 01:57:09;;;;;;;18.10;8.37;;;3.40;99.90;;;;;;5051917;28;20052;-76
2024/02/29 01:59:38;;;;;;;17.20;8.50;;;3.30;99.90;;;;;;5052858;28;20541;-78
2024/02/29 02:02:04;;;;;;;17.83;8.57;;;3.30;99.90;;;;;;5052197;28;20088;-77
2024/02/29 02:04:30;;;;;;;19.27;9.07;;;3.30;99.90;;;;;;5051243;28;20021;-77
2024/02/29 02:06:57;;;;;;;18.03;8.30;;;3.30;99.90;;;;;;5053172;28;20386;-78
2024/02/29 02:09:23;;;;;;;18.80;8.53;;;3.40;99.90;;;;;;5051127;28;20531;-78
2024/02/29 02:11:49;;;;;;;18.43;8.47;;;3.30;99.90;;;;;;5053116;28;20032;-79
2024/02/29 02:14:15;;;;;;;17.27;8.40;;;3.30;99.90;;;;;;5050597;28;20390;-77
2024/02/29 02:16:41;;;;;;;17.77;8.60;;;3.40;99.90;;;;;;5052111;28;20024;-78
2024/02/29 02:19:14;;;;;;;18.90;8.67;;;3.30;99.90;;;;;;5051980;28;20488;-78
2024/02/29 02:21:40;;;;;;;18.87;8.67;;;3.30;99.90;;;;;;5051769;28;20381;-78
2024/02/29 02:24:06;;;;;;;17.13;8.57;;;3.30;99.90;;;;;;5051897;28;20040;-78
2024/02/29 02:26:31;;;;;;;17.03;8.17;;;3.30;99.90;;;;;;5052220;28;20446;-78
2024/02/29 02:28:57;;;;;;;20.27;8.97;;;3.10;99.90;;;;;;5053115;28;20363;-78
2024/02/29 02:31:23;;;;;;;20.80;9.20;;;3.10;99.90;;;;;;5051254;28;20036;-78
2024/02/29 02:33:48;;;;;;;18.90;8.60;;;3.10;99.90;;;;;;5051924;28;20414;-78
2024/02/29 02:36:14;;;;;;;15.73;7.70;;;3.10;99.90;;;;;;5052497;28;20025;-75
2024/02/29 02:38:39;;;;;;;20.20;8.70;;;3.10;99.90;;;;;;5051959;28;20516;-78
2024/02/29 02:41:05;;;;;;;19.70;8.53;;;2.90;99.90;;;;;;5052007;28;20029;-78
2024/02/29 02:43:31;;;;;;;17.83;8.83;;;2.90;99.90;;;;;;5050832;28;20037;-78
2024/02/29 02:45:56;;;;;;;17.57;8.50;;;3.00;99.90;;;;;;5052652;28;20064;-78
2024/02/29 02:48:22;;;;;;;16.77;8.63;;;3.10;99.90;;;;;;5051948;28;20021;-77
2024/02/29 02:50:47;;;;;;;17.00;8.27;;;3.00;99.90;;;;;;5052308;28;20059;-78
2024/02/29 02:53:13;;;;;;;17.03;8.37;;;3.00;99.90;;;;;;5051501;28;20477;-76
2024/02/29 02:55:39;;;;;;;19.27;8.83;;;3.00;99.90;;;;;;5051452;28;20036;-79
2024/02/29 02:58:04;;;;;;;17.13;8.30;;;3.00;99.90;;;;;;5051983;28;20386;-78
2024/02/29 03:00:30;;;;;;;16.67;9.10;;;3.00;99.90;;;;;;5050830;28;20024;-78
2024/02/29 03:02:55;;;;;;;16.57;8.77;;;3.00;99.90;;;;;;5051423;28;20067;-78
2024/02/29 03:05:22;;;;;;;15.97;8.17;;;2.90;99.90;;;;;;5050939;28;20029;-78
2024/02/29 03:07:48;;;;;;;15.93;7.93;;;2.90;99.90;;;;;;5051696;28;20025;-79
2024/02/29 03:10:13;;;;;;;17.70;8.47;;;2.90;99.90;;;;;;5051332;28;20442;-76
2024/02/29 03:12:39;;;;;;;18.30;8.40;;;2.80;99.90;;;;;;5052171;28;20043;-79
2024/02/29 03:15:06;;;;;;;17.53;7.87;;;2.80;99.90;;;;;;5051572;28;20067;-78
2024/02/29 03:17:31;;;;;;;16.40;7.97;;;2.80;99.90;;;;;;5050696;28;20029;-78
2024/02/29 03:19:57;;;;;;;16.17;8.30;;;2.80;99.90;;;;;;5051748;28;20033;-78
2024/02/29 03:22:23;;;;;;;17.63;8.00;;;2.90;99.90;;;;;;5051971;28;20099;-78
2024/02/29 03:24:48;;;;;;;18.00;8.70;;;2.90;99.90;;;;;;5051335;28;20135;-78
2024/02/29 03:27:14;;;;;;;19.13;8.63;;;2.90;99.90;;;;;;5054377;28;20360;-76
2024/02/29 03:29:41;;;;;;;18.03;8.30;;;2.90;99.90;;;;;;5055459;28;20029;-78
2024/02/29 03:32:07;;;;;;;19.70;8.13;;;2.90;99.90;;;;;;5055597;28;20029;-79
2024/02/29 03:34:32;;;;;;;17.27;8.07;;;2.80;99.90;;;;;;5054751;28;20035;-78
2024/02/29 03:36:58;;;;;;;21.03;8.53;;;2.70;99.90;;;;;;5056541;28;20079;-79
2024/02/29 03:39:23;;;;;;;17.03;8.27;;;2.70;99.90;;;;;;5054736;28;20025;-78
2024/02/29 03:41:49;;;;;;;14.87;7.57;;;2.70;99.90;;;;;;5055350;28;20452;-79
2024/02/29 03:44:15;;;;;;;17.07;8.40;;;2.60;99.90;;;;;;5054852;28;20095;-75
2024/02/29 03:46:40;;;;;;;17.87;7.37;;;2.60;99.90;;;;;;5054779;28;20420;-79
2024/02/29 03:49:06;;;;;;;15.10;7.87;;;2.70;99.90;;;;;;5056220;28;20035;-79
2024/02/29 03:51:31;;;;;;;16.07;7.00;;;2.70;99.90;;;;;;5055541;28;20032;-79
2024/02/29 03:53:57;;;;;;;15.10;8.20;;;2.70;99.90;;;;;;5054837;28;20025;-79
2024/02/29 03:56:23;;;;;;;16.63;8.07;;;2.80;99.90;;;;;;5055040;28;20025;-79
2024/02/29 03:58:49;;;;;;;21.57;8.67;;;2.80;99.90;;;;;;5055076;28;20470;-79
2024/02/29 04:01:15;;;;;;;18.20;8.43;;;2.80;99.90;;;;;;5054547;28;20032;-78
2024/02/29 04:03:41;;;;;;;15.90;7.97;;;2.80;99.90;;;;;;5054043;28;20025;-78
2024/02/29 04:06:07;;;;;;;14.03;6.97;;;2.80;99.90;;;;;;5054881;28;20036;-78
2024/02/29 04:08:33;;;;;;;19.37;8.40;;;2.70;99.90;;;;;;5054098;28;20025;-78
2024/02/29 04:10:59;;;;;;;16.57;7.57;;;2.70;99.90;;;;;;5055056;28;20037;-79
2024/02/29 04:13:25;;;;;;;18.10;8.07;;;2.60;99.90;;;;;;5053500;28;20524;-78
2024/02/29 04:15:50;;;;;;;17.37;8.13;;;2.70;99.90;;;;;;5054440;28;20025;-79
2024/02/29 04:18:16;;;;;;;17.60;9.17;;;2.70;99.90;;;;;;5054339;28;20124;-79
2024/02/29 04:20:43;;;;;;;19.73;8.27;;;2.60;99.90;;;;;;5054004;28;20056;-79
2024/02/29 04:23:09;;;;;;;18.40;8.00;;;2.60;99.90;;;;;;5054480;28;20040;-79
2024/02/29 04:25:35;;;;;;;16.07;8.87;;;2.70;99.90;;;;;;5053422;28;20029;-78
2024/02/29 04:28:00;;;;;;;18.23;8.33;;;2.80;99.90;;;;;;5054426;28;20091;-78
2024/02/29 04:30:26;;;;;;;26.17;10.63;;;2.70;99.90;;;;;;5054743;28;20409;-79
2024/02/29 04:32:51;;;;;;;31.53;12.00;;;2.80;99.90;;;;;;5055728;28;20045;-78
2024/02/29 04:35:17;;;;;;;30.60;11.70;;;2.90;99.90;;;;;;5054269;28;20029;-78
2024/02/29 04:37:43;;;;;;;31.73;12.93;;;2.90;99.90;;;;;;5053058;28;20059;-78
2024/02/29 04:40:10;;;;;;;33.30;12.60;;;2.80;99.90;;;;;;5054245;28;20033;-78
2024/02/29 04:42:35;;;;;;;42.87;13.53;;;2.90;99.90;;;;;;5054450;28;20032;-80
2024/02/29 04:45:01;;;;;;;43.00;13.20;;;3.00;99.90;;;;;;5055098;28;20053;-78
2024/02/29 04:47:27;;;;;;;42.63;14.20;;;3.00;99.90;;;;;;5054340;28;20104;-78
2024/02/29 04:49:52;;;;;;;39.97;14.23;;;3.00;99.90;;;;;;5055099;28;20059;-79
2024/02/29 04:52:18;;;;;;;37.57;12.93;;;3.10;99.90;;;;;;5054100;28;20033;-78
2024/02/29 04:54:44;;;;;;;41.00;13.03;;;3.20;99.90;;;;;;5054492;28;20033;-79
2024/02/29 04:57:09;;;;;;;41.80;12.67;;;3.20;99.90;;;;;;5054080;28;20033;-79
2024/02/29 04:59:35;;;;;;;54.70;13.50;;;3.10;99.90;;;;;;5054291;28;20024;-79
2024/02/29 05:02:01;;;;;;;55.67;13.20;;;3.00;99.90;;;;;;5053901;28;20021;-79
2024/02/29 05:04:26;;;;;;;32.83;12.23;;;2.90;99.90;;;;;;5053893;28;20073;-78
2024/02/29 05:06:53;;;;;;;42.90;11.87;;;3.00;99.90;;;;;;5054461;28;20025;-78
2024/02/29 05:09:19;;;;;;;48.23;12.13;;;2.90;99.90;;;;;;5054623;28;20025;-78
2024/02/29 05:11:45;;;;;;;36.40;11.73;;;2.90;99.90;;;;;;5052797;28;20108;-78
2024/02/29 05:14:10;;;;;;;34.83;11.77;;;3.00;99.90;;;;;;5053425;28;20135;-78
2024/02/29 05:16:36;;;;;;;30.13;12.17;;;3.00;99.90;;;;;;5052544;28;20033;-79
2024/02/29 05:19:02;;;;;;;29.93;12.57;;;3.20;99.90;;;;;;5053541;28;20082;-78
2024/02/29 05:21:27;;;;;;;41.83;11.53;;;3.20;99.90;;;;;;5053619;28;20045;-78
2024/02/29 05:23:53;;;;;;;35.03;11.27;;;3.20;99.90;;;;;;5053210;28;20029;-78
2024/02/29 05:26:19;;;;;;;30.00;11.07;;;3.10;99.90;;;;;;5054236;28;20474;-77
2024/02/29 05:28:45;;;;;;;28.90;11.33;;;3.00;99.90;;;;;;5052243;28;20820;-78
2024/02/29 05:31:10;;;;;;;22.60;10.67;;;3.00;99.90;;;;;;5054051;28;20100;-78
2024/02/29 05:33:37;;;;;;;27.50;10.27;;;3.00;99.90;;;;;;5052351;28;20075;-78
2024/02/29 05:36:03;;;;;;;25.07;10.47;;;3.00;99.90;;;;;;5052955;28;20377;-78
2024/02/29 05:38:29;;;;;;;47.33;11.40;;;2.90;99.90;;;;;;5051489;28;20120;-77
2024/02/29 05:40:57;;;;;;;28.30;10.90;;;2.90;99.90;;;;;;5052811;28;20504;-78
2024/02/29 05:43:23;;;;;;;26.73;10.07;;;2.90;99.90;;;;;;5052067;28;20391;-76
2024/02/29 05:45:49;;;;;;;23.63;10.47;;;2.90;99.90;;;;;;5052139;28;20116;-78
2024/02/29 05:48:14;;;;;;;29.23;10.23;;;3.00;99.90;;;;;;5052652;28;20100;-78
2024/02/29 05:50:40;;;;;;;24.33;10.73;;;3.10;99.90;;;;;;5051186;28;20032;-78
2024/02/29 05:53:06;;;;;;;23.73;10.67;;;3.20;99.90;;;;;;5052723;28;20025;-78
2024/02/29 05:55:31;;;;;;;23.20;11.13;;;3.20;99.90;;;;;;5051609;28;20059;-77
2024/02/29 05:57:57;;;;;;;38.63;10.87;;;3.20;99.90;;;;;;5053284;28;20029;-77
2024/02/29 06:00:22;;;;;;;47.97;11.47;;;3.10;99.90;;;;;;5051760;28;20386;-78
2024/02/29 06:02:48;;;;;;;33.97;10.43;;;3.00;99.90;;;;;;5053877;28;20078;-81
2024/02/29 06:05:14;;;;;;;46.43;11.13;;;3.00;99.90;;;;;;5053181;28;20049;-78
2024/02/29 06:07:39;;;;;;;28.03;10.77;;;3.00;99.90;;;;;;5051710;28;20021;-78
2024/02/29 06:10:10;;;;;;;68.47;11.43;;;3.00;99.90;;;;;;5053445;28;20099;-78
2024/02/29 06:12:35;;;;;;;36.80;10.40;;;3.00;99.90;;;;;;5052334;28;20547;-80
2024/02/29 06:15:01;;;;;;;34.90;10.07;;;2.90;99.90;;;;;;5053637;28;20041;-78
2024/02/29 06:17:27;;;;;;;62.30;11.67;;;2.90;99.90;;;;;;5051371;28;20462;-75
2024/02/29 06:19:53;;;;;;;23.33;9.77;;;2.90;99.90;;;;;;5051258;28;20111;-77
2024/02/29 06:22:19;;;;;;;30.60;10.90;;;2.80;99.90;;;;;;5052908;28;20043;-77
2024/02/29 06:24:44;;;;;;;23.90;10.13;;;2.90;99.90;;;;;;5051044;28;20640;-77
2024/02/29 06:27:10;;;;;;;21.40;9.60;;;3.00;99.90;;;;;;5052318;28;20074;-77
2024/02/29 06:29:35;;;;;;;21.33;9.87;;;3.10;99.90;;;;;;5051874;28;20055;-77
2024/02/29 06:32:01;;;;;;;31.87;10.13;;;3.20;99.90;;;;;;5052661;28;20071;-77
2024/02/29 06:34:27;;;;;;;21.73;9.27;;;3.10;99.90;;;;;;5052591;28;20024;-77
2024/02/29 06:36:54;;;;;;;22.87;9.40;;;3.10;99.90;;;;;;5053142;28;20509;-77
2024/02/29 06:39:19;;;;;;;22.40;9.57;;;3.20;99.90;;;;;;5053346;28;20029;-77
2024/02/29 06:41:45;;;;;;;22.33;10.80;;;3.20;99.90;;;;;;5051093;28;20040;-77
2024/02/29 06:44:11;;;;;;;21.20;9.40;;;3.30;99.90;;;;;;5051578;28;20051;-77
2024/02/29 06:46:37;;;;;;;20.37;9.43;;;3.20;99.90;;;;;;5051249;28;20386;-77
2024/02/29 06:49:04;;;;;;;23.57;9.13;;;3.20;99.90;;;;;;5051336;28;20025;-76
2024/02/29 06:51:29;;;;;;;21.10;8.93;;;3.20;99.90;;;;;;5050837;28;20124;-77
2024/02/29 06:53:56;;;;;;;32.50;9.17;;;3.10;99.90;;;;;;5052018;28;20108;-77
2024/02/29 06:56:22;;;;;;;26.40;9.07;;;2.90;99.90;;;;;;5051655;28;20025;-77
2024/02/29 06:58:48;;;;;;;64.87;10.03;;;2.90;99.90;;;;;;5051189;28;20021;-77
2024/02/29 07:01:14;;;;;;;50.27;9.77;;;2.80;99.90;;;;;;5053619;28;20029;-77
2024/02/29 07:03:40;;;;;;;25.87;8.70;;;2.60;99.90;;;;;;5055351;28;20025;-77
2024/02/29 07:06:06;;;;;;;19.13;8.47;;;2.60;99.90;;;;;;5056896;28;20029;-77
2024/02/29 07:08:35;;;;;;;33.30;9.50;;;2.70;99.90;;;;;;5055266;28;20055;-77
2024/02/29 07:11:01;;;;;;;25.03;9.10;;;2.60;99.90;;;;;;5055863;28;20029;-78
2024/02/29 07:13:27;;;;;;;22.27;8.23;;;2.70;99.90;;;;;;5055465;28;20394;-76
2024/02/29 07:15:53;;;;;;;21.73;7.97;;;2.70;99.90;;;;;;5055900;28;20033;-77
2024/02/29 07:18:18;;;;;;;23.87;8.77;;;2.70;99.90;;;;;;5056798;28;20040;-77
2024/02/29 07:20:44;;;;;;;16.03;8.10;;;2.70;99.90;;;;;;5055975;28;20029;-77
2024/02/29 07:23:10;;;;;;;18.17;7.70;;;2.80;99.90;;;;;;5056645;28;20384;-77
2024/02/29 07:25:36;;;;;;;22.57;8.60;;;2.70;99.90;;;;;;5055823;28;20032;-77
2024/02/29 07:28:03;;;;;;;42.63;9.13;;;2.80;99.90;;;;;;5056423;28;20370;-77
2024/02/29 07:30:30;;;;;;;27.20;9.97;;;2.80;99.90;;;;;;5056016;28;20040;-76
2024/02/29 07:32:57;;;;;;;19.93;9.70;;;2.70;99.90;;;;;;5056486;28;20017;-76
2024/02/29 07:35:27;;;;;;;26.47;10.00;;;2.70;99.90;;;;;;5056418;28;20025;-77
2024/02/29 07:37:52;;;;;;;23.97;9.67;;;2.80;99.90;;;;;;5054617;28;20056;-77
2024/02/29 07:40:18;;;;;;;21.47;9.40;;;2.90;99.90;;;;;;5055150;28;20077;-77
2024/02/29 07:42:44;;;;;;;21.70;9.00;;;2.90;99.90;;;;;;5054351;28;20037;-76
2024/02/29 07:45:10;;;;;;;24.17;9.03;;;3.00;99.90;;;;;;5055984;28;20118;-77
2024/02/29 07:47:36;;;;;;;20.13;9.27;;;3.00;99.90;;;;;;5054183;28;20025;-76
2024/02/29 07:50:05;;;;;;;17.40;8.87;;;3.10;99.90;;;;;;5054685;28;20021;-76
2024/02/29 07:52:31;;;;;;;17.97;7.63;;;3.20;99.90;;;;;;5054194;28;20025;-76
2024/02/29 07:54:57;;;;;;;19.13;8.07;;;3.30;99.90;;;;;;5054651;28;20055;-76
2024/02/29 07:57:23;;;;;;;18.00;8.23;;;3.30;99.90;;;;;;5054404;28;20470;-76
2024/02/29 07:59:48;;;;;;;13.87;7.87;;;3.30;99.90;;;;;;5053964;28;20477;-76
2024/02/29 08:02:14;;;;;;;15.90;7.80;;;3.30;99.90;;;;;;5054383;28;20047;-76
2024/02/29 08:04:39;;;;;;;14.63;7.63;;;3.30;99.90;;;;;;5055175;28;20029;-76
2024/02/29 08:07:06;;;;;;;14.43;7.90;;;3.40;99.90;;;;;;5054339;28;20547;-76
2024/02/29 08:09:34;;;;;;;15.53;7.73;;;3.40;99.90;;;;;;5053960;28;20478;-75
2024/02/29 08:12:00;;;;;;;18.40;8.40;;;3.50;99.90;;;;;;5055053;28;20032;-76
2024/02/29 08:14:26;;;;;;;15.30;7.30;;;3.50;99.90;;;;;;5053963;28;20120;-76
2024/02/29 08:16:51;;;;;;;14.73;7.10;;;3.60;99.90;;;;;;5053950;28;20029;-76
2024/02/29 08:19:17;;;;;;;15.23;7.67;;;3.70;99.90;;;;;;5054409;28;20061;-76
2024/02/29 08:21:43;;;;;;;14.83;7.13;;;3.50;99.90;;;;;;5054852;28;20025;-76
2024/02/29 08:24:08;;;;;;;16.53;8.37;;;3.60;99.90;;;;;;5054239;28;20119;-76
2024/02/29 08:26:34;;;;;;;15.63;7.87;;;3.50;99.90;;;;;;5054858;28;20074;-76
2024/02/29 08:28:59;;;;;;;18.60;8.90;;;3.50;99.90;;;;;;5054336;28;20470;-76
2024/02/29 08:31:25;;;;;;;16.50;8.13;;;3.50;99.90;;;;;;5054082;28;20028;-76
2024/02/29 08:33:51;;;;;;;17.47;9.07;;;3.50;99.90;;;;;;5054461;28;20264;-76
2024/02/29 08:36:16;;;;;;;18.53;8.37;;;3.60;99.90;;;;;;5053900;28;20032;-76
2024/02/29 08:38:42;;;;;;;18.87;9.13;;;3.70;99.90;;;;;;5054410;28;20033;-76
2024/02/29 08:41:08;;;;;;;19.97;9.03;;;3.70;99.90;;;;;;5053961;28;20030;-76
2024/02/29 08:43:33;;;;;;;17.00;8.50;;;3.70;99.90;;;;;;5052755;28;20474;-75
2024/02/29 08:45:59;;;;;;;18.60;8.30;;;3.70;99.90;;;;;;5053454;28;20057;-76
2024/02/29 08:48:24;;;;;;;16.70;8.40;;;3.80;99.90;;;;;;5054662;28;20029;-76
2024/02/29 08:50:50;;;;;;;16.10;8.30;;;3.80;99.90;;;;;;5054180;28;20085;-76
2024/02/29 08:53:16;;;;;;;16.87;8.30;;;3.90;99.90;;;;;;5053576;28;20108;-76
2024/02/29 08:55:41;;;;;;;18.03;8.10;;;4.00;99.90;;;;;;5052655;28;20036;-75
2024/02/29 08:58:07;;;;;;;17.27;8.37;;;4.00;99.90;;;;;;5054532;28;20025;-75
2024/02/29 09:00:33;;;;;;;15.67;7.87;;;4.10;99.90;;;;;;5052985;28;20533;-74
2024/02/29 09:02:59;;;;;;;17.83;9.17;;;4.20;99.90;;;;;;5053253;28;20120;-76
2024/02/29 09:05:25;;;;;;;15.43;8.13;;;4.20;99.90;;;;;;5054171;28;20087;-76
2024/02/29 09:07:50;;;;;;;14.47;7.57;;;4.20;99.90;;;;;;5052550;28;20087;-76
2024/02/29 09:10:16;;;;;;;18.67;8.57;;;4.30;99.90;;;;;;5053224;28;20474;-76
2024/02/29 09:12:42;;;;;;;21.93;9.40;;;4.30;99.90;;;;;;5052156;28;20033;-75
2024/02/29 09:15:08;;;;;;;17.07;8.47;;;4.40;99.90;;;;;;5054467;28;20064;-76
2024/02/29 09:17:34;;;;;;;19.70;8.60;;;4.50;99.90;;;;;;5054181;28;20029;-76
2024/02/29 09:19:59;;;;;;;18.33;9.90;;;4.60;99.90;;;;;;5053140;28;20392;-75
2024/02/29 09:22:25;;;;;;;18.20;8.97;;;4.70;99.90;;;;;;5052833;28;20025;-76
2024/02/29 09:24:51;;;;;;;18.47;9.30;;;4.80;99.90;;;;;;5051976;28;20040;-75
2024/02/29 09:27:16;;;;;;;19.77;9.87;;;4.80;99.90;;;;;;5052998;28;20032;-76
2024/02/29 09:29:42;;;;;;;16.57;8.53;;;4.90;99.90;;;;;;5053279;28;20025;-75
2024/02/29 09:32:08;;;;;;;19.63;9.57;;;4.90;99.90;;;;;;5053891;28;20057;-76
2024/02/29 09:34:37;;;;;;;18.43;8.90;;;5.00;99.90;;;;;;5053925;28;20083;-76
2024/02/29 09:37:06;;;;;;;20.60;9.43;;;5.00;99.90;;;;;;5052558;28;20031;-76
2024/02/29 09:39:32;;;;;;;20.20;9.87;;;5.10;99.90;;;;;;5052526;28;20026;-76
2024/02/29 09:41:57;;;;;;;21.07;9.37;;;5.20;99.90;;;;;;5053077;28;20518;-76
2024/02/29 09:44:25;;;;;;;22.07;9.30;;;5.30;99.90;;;;;;5052401;28;20128;-76
2024/02/29 09:46:51;;;;;;;20.20;9.70;;;5.30;99.90;;;;;;5052005;28;20029;-75
2024/02/29 09:49:16;;;;;;;22.17;9.83;;;5.40;99.90;;;;;;5052704;28;20067;-77
2024/02/29 09:51:44;;;;;;;20.90;9.60;;;5.40;99.90;;;;;;5051891;28;20120;-76
2024/02/29 09:54:17;;;;;;;19.70;9.07;;;5.40;99.90;;;;;;5053881;28;20048;-76
2024/02/29 09:56:44;;;;;;;21.57;9.80;;;5.40;99.90;;;;;;5051752;28;20108;-76
2024/02/29 09:59:16;;;;;;;21.93;9.70;;;5.60;99.90;;;;;;5053429;28;20029;-76
2024/02/29 10:01:51;;;;;;;20.97;9.83;;;5.60;99.90;;;;;;5051677;28;20047;-76
2024/02/29 10:04:17;;;;;;;28.97;11.33;;;5.70;99.90;;;;;;5053499;28;20033;-76
2024/02/29 10:06:43;;;;;;;20.83;10.60;;;5.80;99.90;;;;;;5052548;28;20025;-76
2024/02/29 10:09:09;;;;;;;20.30;9.80;;;5.90;99.90;;;;;;5052194;28;20474;-76
2024/02/29 10:11:42;;;;;;;24.60;10.03;;;5.90;99.90;;;;;;5051950;28;20462;-76
2024/02/29 10:14:21;;;;;;;21.93;10.77;;;5.90;99.90;;;;;;5052210;28;20044;-76
2024/02/29 10:16:54;;;;;;;23.30;10.30;;;5.90;99.90;;;;;;5052551;28;20025;-76
2024/02/29 10:19:21;;;;;;;20.43;9.50;;;5.90;99.90;;;;;;5051876;28;20542;-77
2024/02/29 10:21:47;;;;;;;27.17;10.83;;;6.00;99.90;;;;;;5052565;28;20382;-76
2024/02/29 10:24:13;;;;;;;21.87;10.17;;;6.00;99.90;;;;;;5051652;28;20103;-76
2024/02/29 10:26:38;;;;;;;24.70;10.63;;;6.10;99.90;;;;;;5052674;28;20234;-75
2024/02/29 10:29:16;;;;;;;22.13;10.43;;;6.20;99.90;;;;;;5051935;28;20017;-76
2024/02/29 10:31:42;;;;;;;22.43;10.10;;;6.30;99.90;;;;;;5052327;28;20033;-76
2024/02/29 10:34:12;;;;;;;28.63;13.90;;;6.40;99.90;;;;;;5051598;28;20029;-76
2024/02/29 10:36:39;;;;;;;24.87;10.87;;;6.40;99.90;;;;;;5050799;28;20021;-77
2024/02/29 10:39:05;;;;;;;26.10;11.33;;;6.40;99.90;;;;;;5051567;28;20082;-76
2024/02/29 10:41:32;;;;;;;22.90;11.03;;;6.50;99.90;;;;;;5051230;28;20536;-76
2024/02/29 10:44:02;;;;;;;23.00;10.37;;;6.50;99.90;;;;;;5051121;28;20033;-76
2024/02/29 10:46:28;;;;;;;26.27;10.43;;;6.60;99.90;;;;;;5051675;28;20081;-76
2024/02/29 10:49:06;;;;;;;27.33;12.07;;;6.70;99.90;;;;;;5052209;28;20031;-76
2024/02/29 10:51:49;;;;;;;22.93;10.93;;;6.70;99.90;;;;;;5051660;28;20068;-76
2024/02/29 10:54:19;;;;;;;;;;;6.70;99.90;;;;;;5051837;28;20029;-76
2024/02/29 10:56:49;;;;;;;22.00;10.57;;;6.70;99.90;;;;;;5051940;28;19912;-76
2024/02/29 10:59:19;;;;;;;22.47;10.27;;;6.80;99.90;;;;;;5051466;28;20035;-76
2024/02/29 11:01:45;;;;;;;24.40;10.63;;;6.80;99.90;;;;;;5051997;28;20029;-76
2024/02/29 11:04:11;;;;;;;26.67;11.60;;;6.80;99.90;;;;;;5051300;28;20032;-76
2024/02/29 11:06:47;;;;;;;24.50;11.70;;;6.90;99.90;;;;;;5051222;28;20021;-76
2024/02/29 11:09:24;;;;;;;27.37;11.30;;;6.90;99.90;;;;;;5051391;28;20506;-76
2024/02/29 11:12:13;;;;;;;28.90;12.80;;;7.00;99.90;;;;;;5051800;28;20043;-76
2024/02/29 11:14:42;;;;;;;26.07;11.43;;;7.00;99.90;;;;;;5051187;28;20482;-76
2024/02/29 11:17:08;;;;;;;29.23;13.80;;;7.00;99.90;;;;;;5051084;28;20107;-76
2024/02/29 11:19:34;;;;;;;30.55;14.35;;;7.10;99.90;;;;;;5051157;28;20413;-76
2024/02/29 11:22:13;;;;;;;22.92;10.73;;;7.10;99.90;;;;;;5050448;28;20060;-76
2024/02/29 11:24:42;;;;;;;34.30;14.95;;;7.20;99.90;;;;;;5051966;28;20389;-76
2024/02/29 11:27:12;;;;;;;28.33;12.90;;;7.30;99.90;;;;;;5052323;28;20025;-76
2024/02/29 11:29:39;;;;;;;27.77;11.30;;;7.40;99.90;;;;;;5051974;28;20029;-76
2024/02/29 11:32:05;;;;;;;28.55;12.45;;;7.40;99.90;;;;;;5051704;28;20021;-77
2024/02/29 11:34:31;;;;;;;26.50;11.52;;;7.50;99.90;;;;;;5051103;28;20036;-76
2024/02/29 11:36:57;;;;;;;23.67;10.73;;;7.60;99.90;;;;;;5050406;28;20021;-76
2024/02/29 11:39:23;;;;;;;22.02;11.13;;;7.50;99.90;;;;;;5050863;28;20075;-76
2024/02/29 11:41:58;;;;;;;21.52;9.95;;;7.60;99.90;;;;;;5051430;28;20494;-76
2024/02/29 11:44:24;;;;;;;23.52;10.40;;;7.70;99.90;;;;;;5050431;28;20508;-76
2024/02/29 11:46:50;;;;;;;24.20;10.82;;;7.70;99.90;;;;;;5052444;28;20101;-77
2024/02/29 11:49:20;;;;;;;22.95;9.80;;;7.70;99.90;;;;;;5055921;28;20025;-77
2024/02/29 11:51:47;;;;;;;22.20;10.65;;;7.80;99.90;;;;;;5055437;28;20390;-76
2024/02/29 11:54:14;;;;;;;23.77;11.38;;;7.90;99.90;;;;;;5055898;28;20140;-76
2024/02/29 11:56:41;;;;;;;21.55;9.95;;;7.90;99.90;;;;;;5054272;28;20107;-77
2024/02/29 11:59:09;;;;;;;23.88;10.82;;;8.00;99.90;;;;;;5055155;28;20055;-76
2024/02/29 12:01:35;;;;;;;24.80;10.13;;;8.10;99.90;;;;;;5054402;28;20497;-76
2024/02/29 12:04:01;;;;;;;20.92;9.90;;;8.20;99.90;;;;;;5054864;28;20037;-76
2024/02/29 12:06:27;;;;;;;20.88;10.20;;;8.30;99.90;;;;;;5054323;28;20029;-76
2024/02/29 12:08:53;;;;;;;19.80;9.25;;;8.30;99.90;;;;;;5053872;28;20136;-76
2024/02/29 12:11:20;;;;;;;18.90;9.57;;;8.40;99.90;;;;;;5054379;28;20048;-77
2024/02/29 12:13:46;;;;;;;21.00;9.57;;;8.60;99.90;;;;;;5054024;28;20120;-76
2024/02/29 12:16:13;;;;;;;21.73;9.80;;;8.70;99.90;;;;;;5054430;28;20032;-77
2024/02/29 12:18:39;;;;;;;19.00;9.52;;;8.90;99.90;;;;;;5055505;28;20119;-77
2024/02/29 12:21:05;;;;;;;18.08;9.98;;;9.00;99.90;;;;;;5053753;28;20060;-77
2024/02/29 12:23:34;;;;;;;22.65;9.85;;;9.20;99.90;;;;;;5055283;28;20029;-77
2024/02/29 12:26:13;;;;;;;24.63;9.15;;;9.40;99.90;;;;;;5054806;28;20037;-77
2024/02/29 12:28:39;;;;;;;18.75;8.80;;;9.50;99.90;;;;;;5053956;28;20090;-77
2024/02/29 12:31:08;;;;;;;17.23;8.68;;;9.70;99.90;;;;;;5053454;28;20028;-77
2024/02/29 12:33:42;;;;;;;21.38;9.32;;;9.80;99.90;;;;;;5055307;28;20472;-77
2024/02/29 12:36:12;;;;;;;18.30;8.23;;;10.00;99.90;;;;;;5053261;28;20047;-77
2024/02/29 12:38:39;;;;;;;18.08;9.00;;;10.30;99.90;;;;;;5053933;28;20049;-77